Time;durP1;ratioP1;P1;durP2;ratioP2;P2;SDS_P1;SDS_P2;PMS_P1;PMS_P2;Temp;Humidity;BMP_temperature;BMP_pressure;BME280_temperature;BME280_humidity;BME280_pressure;Samples;Min_cycle;Max_cycle;Signal;HPM_P1;HPM_P2
2023/01/30 00:01:23;;;;;;;20.00;12.93;;;5.60;99.90;;;;;;4993243;28;20165;-68
2023/01/30 00:03:49;;;;;;;20.97;13.43;;;5.50;99.90;;;;;;4993254;28;20404;-68
2023/01/30 00:06:16;;;;;;;24.07;13.10;;;5.60;99.90;;;;;;4992241;28;20425;-68
2023/01/30 00:08:42;;;;;;;17.57;13.13;;;5.50;99.90;;;;;;4979838;28;20872;-73
2023/01/30 00:11:10;;;;;;;19.53;12.00;;;5.60;99.90;;;;;;4973605;28;20837;-73
2023/01/30 00:13:37;;;;;;;25.83;15.17;;;5.60;99.90;;;;;;4972580;28;20416;-74
2023/01/30 00:16:03;;;;;;;24.83;15.23;;;5.60;99.90;;;;;;4972168;28;20482;-73
2023/01/30 00:18:29;;;;;;;22.90;15.43;;;5.60;99.90;;;;;;4973519;28;20787;-69
2023/01/30 00:20:59;;;;;;;24.77;13.63;;;5.60;99.90;;;;;;4973571;28;20405;-68
2023/01/30 00:23:26;;;;;;;27.10;16.57;;;5.60;99.90;;;;;;4983819;28;20177;-68
2023/01/30 00:25:52;;;;;;;13.67;9.57;;;5.70;99.90;;;;;;4991637;28;20466;-75
2023/01/30 00:28:18;;;;;;;27.63;14.40;;;5.60;99.90;;;;;;4991624;28;20447;-74
2023/01/30 00:30:43;;;;;;;21.33;13.70;;;5.60;99.90;;;;;;4992927;28;20181;-73
2023/01/30 00:33:11;;;;;;;31.73;16.20;;;5.60;99.90;;;;;;4991554;28;20177;-73
2023/01/30 00:35:36;;;;;;;24.77;16.00;;;5.70;99.90;;;;;;4991141;28;20197;-68
2023/01/30 00:38:02;;;;;;;21.17;15.00;;;5.70;99.90;;;;;;4991726;28;20462;-69
2023/01/30 00:40:28;;;;;;;27.23;15.73;;;5.70;99.90;;;;;;4992666;28;20184;-73
2023/01/30 00:48:26;;;;;;;32.50;14.97;;;5.60;99.90;;;;;;4992841;28;20420;-69
2023/01/30 00:50:52;;;;;;;31.90;14.53;;;5.60;99.90;;;;;;4992069;28;20419;-73
2023/01/30 00:53:18;;;;;;;23.20;13.57;;;5.60;99.90;;;;;;4977241;28;20435;-73
2023/01/30 00:55:44;;;;;;;25.13;13.77;;;5.60;99.90;;;;;;4972033;28;20658;-69
2023/01/30 00:58:10;;;;;;;21.63;14.00;;;5.60;99.90;;;;;;4972968;28;20202;-69
2023/01/30 01:00:36;;;;;;;18.70;12.47;;;5.60;99.90;;;;;;4973090;28;20437;-69
2023/01/30 01:03:03;;;;;;;22.43;14.80;;;5.60;99.90;;;;;;4972911;28;20459;-72
2023/01/30 01:05:29;;;;;;;15.30;9.60;;;5.70;99.90;;;;;;4979137;28;20450;-72
2023/01/30 01:07:55;;;;;;;18.00;11.40;;;5.70;99.90;;;;;;4992037;28;20408;-70
2023/01/30 01:10:21;;;;;;;17.70;9.57;;;5.70;99.90;;;;;;4991989;28;20419;-72
2023/01/30 01:12:51;;;;;;;12.60;7.93;;;5.70;99.90;;;;;;4991207;28;20181;-73
2023/01/30 01:15:17;;;;;;;13.57;9.63;;;5.80;99.90;;;;;;4991413;28;20502;-74
2023/01/30 01:17:42;;;;;;;9.37;8.20;;;5.80;99.90;;;;;;4991945;28;20448;-73
2023/01/30 01:20:09;;;;;;;11.57;8.07;;;5.80;99.90;;;;;;4990947;28;20441;-71
2023/01/30 01:22:35;;;;;;;16.87;9.13;;;5.80;99.90;;;;;;4992186;28;20397;-73
2023/01/30 01:25:01;;;;;;;12.97;8.50;;;5.90;99.90;;;;;;4989720;28;20989;-73
2023/01/30 01:27:28;;;;;;;11.23;8.13;;;5.90;1.00;;;;;;4991513;28;20412;-72
2023/01/30 01:29:53;;;;;;;11.67;7.53;;;5.90;1.00;;;;;;4991965;28;20174;-73
2023/01/30 01:32:20;;;;;;;8.60;7.37;;;5.90;1.00;;;;;;4990870;28;20965;-71
2023/01/30 01:34:46;;;;;;;6.70;6.10;;;5.90;1.00;;;;;;4985643;28;20577;-71
2023/01/30 01:37:11;;;;;;;6.60;5.67;;;6.00;1.00;;;;;;4989855;28;20465;-71
2023/01/30 01:42:24;;;;;;;6.30;5.63;;;6.00;1.00;;;;;;4991241;28;20190;-72
2023/01/30 01:45:18;;;;;;;7.30;5.00;;;6.00;1.00;;;;;;4990689;28;20430;-75
2023/01/30 01:47:56;;;;;;;7.70;5.73;;;6.00;1.00;;;;;;4993348;28;20429;-78
2023/01/30 01:50:39;;;;;;;4.33;3.90;;;6.00;1.00;;;;;;4990208;28;20444;-70
2023/01/30 01:53:07;;;;;;;6.47;5.17;;;6.00;1.00;;;;;;4972049;28;20472;-75
2023/01/30 01:55:33;;;;;;;6.13;4.87;;;6.10;1.00;;;;;;4970022;28;20434;-75
2023/01/30 01:58:24;;;;;;;5.67;3.17;;;6.10;1.00;;;;;;4971736;28;20466;-75
2023/01/30 02:00:51;;;;;;;9.80;5.20;;;6.10;1.00;;;;;;4971910;28;20407;-71
2023/01/30 02:03:22;;;;;;;3.27;3.00;;;6.10;1.00;;;;;;4972135;28;20740;-75
2023/01/30 02:05:52;;;;;;;7.60;5.03;;;6.10;1.00;;;;;;4980570;28;20457;-72
2023/01/30 02:08:29;;;;;;;7.70;4.80;;;6.20;1.00;;;;;;4991279;28;20412;-73
2023/01/30 02:10:58;;;;;;;4.70;3.70;;;6.20;1.00;;;;;;4991394;28;20901;-73
2023/01/30 02:13:25;;;;;;;4.53;3.33;;;6.20;1.00;;;;;;4991394;28;20421;-75
2023/01/30 02:15:51;;;;;;;5.00;3.33;;;6.20;1.00;;;;;;4989860;28;20444;-74
2023/01/30 02:18:17;;;;;;;4.17;3.77;;;6.20;1.00;;;;;;4990958;28;20526;-72
2023/01/30 02:20:53;;;;;;;4.50;3.80;;;6.30;1.00;;;;;;4979236;28;20542;-75
2023/01/30 02:23:43;;;;;;;3.67;3.30;;;6.30;1.00;;;;;;4970082;28;20751;-72
2023/01/30 02:26:33;;;;;;;4.10;3.70;;;6.30;1.00;;;;;;4970670;28;20486;-74
2023/01/30 02:29:16;;;;;;;3.53;3.23;;;6.30;1.00;;;;;;4970707;28;20470;-74
2023/01/30 02:31:47;;;;;;;5.57;3.90;;;6.30;1.00;;;;;;4970386;28;20409;-71
2023/01/30 02:34:25;;;;;;;3.00;2.43;;;6.40;1.00;;;;;;4971229;28;20444;-71
2023/01/30 02:37:09;;;;;;;4.13;3.37;;;6.40;1.00;;;;;;4970830;28;20459;-74
2023/01/30 02:40:01;;;;;;;3.30;3.10;;;6.40;1.00;;;;;;4983689;28;20432;-73
2023/01/30 02:43:00;;;;;;;3.20;2.67;;;6.40;1.00;;;;;;4986607;28;20462;-72
2023/01/30 02:45:45;;;;;;;5.97;2.20;;;6.40;1.00;;;;;;4970549;28;20421;-73
2023/01/30 02:48:23;;;;;;;3.93;2.80;;;6.40;1.00;;;;;;4971285;28;20420;-73
2023/01/30 02:51:05;;;;;;;2.70;2.50;;;6.40;1.00;;;;;;4969477;28;20440;-72
2023/01/30 02:53:32;;;;;;;2.20;2.10;;;6.40;1.00;;;;;;4971307;28;20419;-73
2023/01/30 02:55:59;;;;;;;1.90;1.80;;;6.40;1.00;;;;;;4968606;28;20431;-73
2023/01/30 02:58:30;;;;;;;5.93;2.33;;;6.30;1.00;;;;;;4969964;28;20470;-71
2023/01/30 03:01:07;;;;;;;3.17;2.67;;;6.20;1.00;;;;;;4970692;28;20415;-78
2023/01/30 03:03:54;;;;;;;2.27;1.80;;;6.20;1.00;;;;;;4971287;28;20436;-74
2023/01/30 03:06:51;;;;;;;2.00;1.80;;;6.10;1.00;;;;;;4969085;28;20431;-71
2023/01/30 03:09:35;;;;;;;5.97;1.80;;;6.10;1.00;;;;;;4971319;28;20420;-73
2023/01/30 03:12:05;;;;;;;3.83;2.47;;;6.10;1.00;;;;;;4971242;28;20408;-75
2023/01/30 03:14:50;;;;;;;7.87;2.37;;;6.10;1.00;;;;;;4969183;28;20437;-74
2023/01/30 03:17:19;;;;;;;4.90;2.13;;;6.00;1.00;;;;;;4982426;28;20464;-73
2023/01/30 03:19:45;;;;;;;5.10;2.10;;;5.80;1.00;;;;;;4990392;28;20513;-73
2023/01/30 03:22:11;;;;;;;11.70;2.80;;;5.80;1.00;;;;;;4990485;28;20411;-72
2023/01/30 03:24:37;;;;;;;4.93;2.13;;;5.70;1.00;;;;;;4988196;28;20493;-74
2023/01/30 03:27:10;;;;;;;5.33;2.30;;;5.70;1.00;;;;;;4990333;28;20173;-71
2023/01/30 03:29:36;;;;;;;5.20;1.93;;;5.70;1.00;;;;;;4990329;28;20297;-72
2023/01/30 03:32:02;;;;;;;6.40;2.73;;;5.70;1.00;;;;;;4984576;28;20449;-73
2023/01/30 03:34:28;;;;;;;5.50;2.77;;;5.70;1.00;;;;;;4989296;28;20424;-74
2023/01/30 03:36:54;;;;;;;3.47;2.50;;;5.60;99.90;;;;;;4990029;28;20189;-72
2023/01/30 03:39:20;;;;;;;4.20;2.30;;;5.60;99.90;;;;;;4990288;28;20628;-74
2023/01/30 03:41:45;;;;;;;16.90;2.40;;;5.60;99.90;;;;;;4990235;28;20414;-70
2023/01/30 03:44:12;;;;;;;7.70;2.53;;;5.60;99.90;;;;;;4989875;28;20408;-72
2023/01/30 03:46:38;;;;;;;5.20;2.50;;;5.60;99.90;;;;;;4987409;28;20196;-71
2023/01/30 03:49:04;;;;;;;7.23;2.57;;;5.50;99.90;;;;;;4971333;28;20438;-71
2023/01/30 03:51:29;;;;;;;8.00;3.70;;;5.60;99.90;;;;;;4970510;28;20254;-75
2023/01/30 03:53:55;;;;;;;7.70;2.43;;;5.60;99.90;;;;;;4970321;28;20625;-74
2023/01/30 03:56:21;;;;;;;5.60;3.13;;;5.50;99.90;;;;;;4969762;28;20197;-73
2023/01/30 03:58:47;;;;;;;9.67;3.43;;;5.50;99.90;;;;;;4969338;28;20238;-75
2023/01/30 04:01:12;;;;;;;14.07;3.63;;;5.50;99.90;;;;;;4980471;28;20671;-73
2023/01/30 04:03:38;;;;;;;12.63;2.70;;;5.50;99.90;;;;;;4992104;28;20206;-71
2023/01/30 04:06:05;;;;;;;11.63;3.00;;;5.40;99.90;;;;;;4992270;28;20202;-75
2023/01/30 04:08:31;;;;;;;5.47;2.80;;;5.50;99.90;;;;;;4991916;28;20269;-74
2023/01/30 04:10:57;;;;;;;6.90;3.43;;;5.50;99.90;;;;;;4991595;28;20506;-72
2023/01/30 04:13:23;;;;;;;15.50;3.00;;;5.40;99.90;;;;;;4993037;28;20930;-75
2023/01/30 04:15:48;;;;;;;11.00;2.80;;;5.40;99.90;;;;;;4989950;28;20611;-71
2023/01/30 04:18:14;;;;;;;12.60;3.33;;;5.40;99.90;;;;;;4991765;28;20464;-71
2023/01/30 04:20:44;;;;;;;8.30;2.30;;;5.40;99.90;;;;;;4993027;28;20173;-74
2023/01/30 04:23:10;;;;;;;10.83;4.00;;;5.40;99.90;;;;;;4992834;28;20402;-72
2023/01/30 04:25:35;;;;;;;5.00;2.10;;;5.30;99.90;;;;;;4992001;28;20433;-71
2023/01/30 04:28:01;;;;;;;9.67;3.13;;;5.30;99.90;;;;;;4975160;28;20190;-75
2023/01/30 04:30:27;;;;;;;13.43;3.30;;;5.20;99.90;;;;;;4986725;28;20180;-73
2023/01/30 04:32:52;;;;;;;12.33;3.43;;;5.10;99.90;;;;;;4991879;28;20190;-73
2023/01/30 04:35:19;;;;;;;10.90;3.00;;;5.10;99.90;;;;;;4992343;28;20684;-74
2023/01/30 04:37:44;;;;;;;5.23;2.73;;;5.10;99.90;;;;;;4983538;28;20472;-73
2023/01/30 04:40:12;;;;;;;6.53;2.47;;;5.10;99.90;;;;;;4973566;28;20608;-72
2023/01/30 04:42:37;;;;;;;14.13;3.63;;;5.10;99.90;;;;;;4973538;28;20543;-72
2023/01/30 04:45:04;;;;;;;6.33;2.93;;;5.00;99.90;;;;;;4971102;28;20468;-73
2023/01/30 04:47:31;;;;;;;6.90;2.90;;;5.00;99.90;;;;;;4971783;28;20421;-73
2023/01/30 04:49:57;;;;;;;20.73;3.37;;;5.00;99.90;;;;;;4973290;28;20428;-73
2023/01/30 04:52:23;;;;;;;6.20;3.60;;;5.00;99.90;;;;;;4972315;28;20402;-72
2023/01/30 04:54:51;;;;;;;8.60;2.50;;;5.00;99.90;;;;;;4971503;28;20430;-74
2023/01/30 04:57:20;;;;;;;10.63;2.70;;;5.00;99.90;;;;;;4973139;28;20468;-73
2023/01/30 04:59:45;;;;;;;3.77;2.83;;;5.00;99.90;;;;;;4971540;28;21215;-72
2023/01/30 05:02:11;;;;;;;12.87;3.97;;;4.90;99.90;;;;;;4973107;28;20410;-73
2023/01/30 05:04:37;;;;;;;16.83;3.83;;;4.90;99.90;;;;;;4970370;28;20189;-73
2023/01/30 05:07:05;;;;;;;14.77;3.40;;;4.90;99.90;;;;;;4972870;28;20301;-72
2023/01/30 05:09:30;;;;;;;5.73;2.70;;;4.90;99.90;;;;;;4972845;28;20182;-75
2023/01/30 05:11:57;;;;;;;8.20;3.23;;;4.90;99.90;;;;;;4972755;28;20424;-71
2023/01/30 05:14:23;;;;;;;7.47;3.40;;;4.90;99.90;;;;;;4971401;28;20219;-72
2023/01/30 05:16:49;;;;;;;12.87;3.43;;;4.90;99.90;;;;;;4971570;28;20451;-73
2023/01/30 05:19:14;;;;;;;13.57;5.50;;;4.90;99.90;;;;;;4972799;28;20174;-71
2023/01/30 05:21:40;;;;;;;7.10;2.93;;;4.80;99.90;;;;;;4972052;28;20618;-74
2023/01/30 05:24:06;;;;;;;8.90;3.33;;;4.80;99.90;;;;;;4975056;28;20235;-73
2023/01/30 05:26:32;;;;;;;11.83;4.00;;;4.80;99.90;;;;;;4970801;28;20178;-73
2023/01/30 05:28:57;;;;;;;10.30;3.50;;;4.80;99.90;;;;;;4972813;28;20751;-72
2023/01/30 05:31:23;;;;;;;12.47;3.40;;;4.80;99.90;;;;;;4971334;28;20181;-74
2023/01/30 05:33:51;;;;;;;8.30;2.33;;;4.80;99.90;;;;;;4972916;28;20272;-73
2023/01/30 05:36:18;;;;;;;18.03;4.20;;;4.80;99.90;;;;;;4971404;28;20457;-72
2023/01/30 05:38:44;;;;;;;15.90;3.57;;;4.80;99.90;;;;;;4972491;28;20473;-74
2023/01/30 05:41:12;;;;;;;20.27;4.60;;;4.80;99.90;;;;;;4971779;28;20428;-72
2023/01/30 05:43:38;;;;;;;17.87;3.63;;;4.80;99.90;;;;;;4972192;28;20457;-72
2023/01/30 05:46:05;;;;;;;13.13;3.10;;;4.80;99.90;;;;;;4971192;28;20468;-74
2023/01/30 05:48:32;;;;;;;14.03;3.70;;;4.90;99.90;;;;;;4979840;28;20442;-72
2023/01/30 05:50:59;;;;;;;8.23;3.30;;;4.80;99.90;;;;;;4972132;28;20401;-74
2023/01/30 05:53:27;;;;;;;15.00;4.23;;;4.90;99.90;;;;;;4977602;28;20905;-75
2023/01/30 05:55:58;;;;;;;16.70;3.70;;;4.90;99.90;;;;;;4989805;28;20429;-74
2023/01/30 05:58:24;;;;;;;10.00;3.40;;;4.90;99.90;;;;;;4985509;28;20469;-75
2023/01/30 06:00:50;;;;;;;8.67;3.80;;;4.90;99.90;;;;;;4970893;28;20507;-72
2023/01/30 06:03:16;;;;;;;11.60;3.67;;;5.00;99.90;;;;;;4975268;28;20427;-71
2023/01/30 06:05:41;;;;;;;9.33;4.03;;;5.00;99.90;;;;;;4982714;28;20468;-75
2023/01/30 06:08:07;;;;;;;20.83;3.77;;;5.10;99.90;;;;;;4980229;28;20200;-73
2023/01/30 06:10:34;;;;;;;14.57;3.57;;;5.10;99.90;;;;;;4973278;28;20446;-70
2023/01/30 06:13:00;;;;;;;22.10;5.43;;;5.00;99.90;;;;;;4978809;28;20841;-72
2023/01/30 06:15:26;;;;;;;10.90;3.70;;;5.00;99.90;;;;;;4988378;28;20453;-72
2023/01/30 06:17:51;;;;;;;10.00;3.00;;;5.10;99.90;;;;;;4983957;28;20204;-71
2023/01/30 06:20:17;;;;;;;17.10;5.57;;;5.00;99.90;;;;;;4969979;28;20178;-69
2023/01/30 06:22:43;;;;;;;16.37;3.97;;;5.00;99.90;;;;;;4984670;28;20194;-73
2023/01/30 06:25:09;;;;;;;8.53;3.33;;;5.00;99.90;;;;;;4970101;28;20261;-72
2023/01/30 06:27:35;;;;;;;13.87;4.13;;;4.90;99.90;;;;;;4973496;28;20190;-72
2023/01/30 06:30:01;;;;;;;16.10;3.83;;;4.90;99.90;;;;;;4990904;28;20402;-71
2023/01/30 06:32:26;;;;;;;16.37;3.17;;;4.90;99.90;;;;;;4981544;28;20185;-73
2023/01/30 06:34:52;;;;;;;28.90;4.23;;;5.00;99.90;;;;;;4969066;28;20428;-73
2023/01/30 06:37:18;;;;;;;7.37;3.67;;;5.00;99.90;;;;;;4977729;28;20271;-70
2023/01/30 06:39:43;;;;;;;10.13;3.13;;;5.00;99.90;;;;;;4989595;28;20179;-74
2023/01/30 06:42:09;;;;;;;17.17;3.47;;;5.00;99.90;;;;;;4985276;28;20265;-68
2023/01/30 06:44:35;;;;;;;22.23;4.97;;;5.10;99.90;;;;;;4969095;28;20225;-74
2023/01/30 06:47:01;;;;;;;7.63;3.10;;;5.20;99.90;;;;;;4974651;28;20213;-69
2023/01/30 06:49:26;;;;;;;18.17;4.40;;;5.10;99.90;;;;;;4972591;28;20175;-71
2023/01/30 06:51:52;;;;;;;13.27;3.53;;;5.10;99.90;;;;;;4973589;28;20465;-74
2023/01/30 06:54:18;;;;;;;5.57;2.60;;;5.10;99.90;;;;;;4991400;28;20222;-73
2023/01/30 06:56:43;;;;;;;15.77;3.60;;;5.00;99.90;;;;;;4981346;28;20646;-73
2023/01/30 06:59:09;;;;;;;14.23;3.60;;;5.10;99.90;;;;;;4977488;28;20222;-73
2023/01/30 07:01:36;;;;;;;12.40;4.27;;;5.20;99.90;;;;;;4988288;28;20211;-69
2023/01/30 07:04:01;;;;;;;13.87;4.87;;;5.20;99.90;;;;;;4990510;28;20291;-73
2023/01/30 07:06:27;;;;;;;13.87;3.57;;;5.20;99.90;;;;;;4981027;28;20540;-73
2023/01/30 07:08:55;;;;;;;14.17;2.97;;;5.20;99.90;;;;;;4970621;28;20303;-68
2023/01/30 07:11:20;;;;;;;11.60;2.57;;;5.20;99.90;;;;;;4972737;28;20177;-74
2023/01/30 07:13:46;;;;;;;21.93;3.80;;;5.20;99.90;;;;;;4989416;28;20413;-73
2023/01/30 07:16:12;;;;;;;17.20;5.00;;;5.20;99.90;;;;;;4989403;28;20194;-73
2023/01/30 07:18:37;;;;;;;9.37;3.57;;;5.20;99.90;;;;;;4990189;28;20571;-67
2023/01/30 07:21:03;;;;;;;12.20;4.10;;;5.20;99.90;;;;;;4988724;28;20256;-67
2023/01/30 07:23:29;;;;;;;16.27;4.60;;;5.20;99.90;;;;;;4969417;28;20336;-73
2023/01/30 07:25:54;;;;;;;18.27;5.50;;;5.20;99.90;;;;;;4969759;28;20619;-73
2023/01/30 07:28:20;;;;;;;13.13;4.53;;;5.30;99.90;;;;;;4970724;28;20182;-72
2023/01/30 07:30:46;;;;;;;21.90;4.27;;;5.30;99.90;;;;;;4970668;28;20167;-67
2023/01/30 07:33:12;;;;;;;17.17;4.77;;;5.40;99.90;;;;;;4970841;28;20509;-73
2023/01/30 07:35:38;;;;;;;10.57;4.27;;;5.40;99.90;;;;;;4969622;28;20256;-74
2023/01/30 07:38:04;;;;;;;12.60;4.10;;;5.40;99.90;;;;;;4973978;28;20209;-67
2023/01/30 07:40:30;;;;;;;10.70;3.30;;;5.40;99.90;;;;;;4974129;28;20199;-73
2023/01/30 07:42:56;;;;;;;8.43;4.03;;;5.40;99.90;;;;;;4973180;28;20413;-66
2023/01/30 07:45:23;;;;;;;20.53;3.10;;;5.50;99.90;;;;;;4973091;28;20421;-67
2023/01/30 07:47:48;;;;;;;13.67;3.60;;;5.50;99.90;;;;;;4973935;28;20417;-66
2023/01/30 07:50:14;;;;;;;11.90;3.67;;;5.60;99.90;;;;;;4973507;28;20405;-71
2023/01/30 07:52:40;;;;;;;9.73;3.60;;;5.60;97.00;;;;;;4987825;28;20189;-66
2023/01/30 07:55:06;;;;;;;19.53;5.30;;;5.60;93.40;;;;;;4992063;28;20479;-66
2023/01/30 07:57:32;;;;;;;15.17;4.20;;;5.70;89.80;;;;;;4993120;28;20245;-66
2023/01/30 07:59:57;;;;;;;20.83;5.80;;;5.80;78.00;;;;;;4992704;28;20404;-72
2023/01/30 08:02:23;;;;;;;12.43;4.63;;;5.90;78.10;;;;;;4991784;28;20736;-66
2023/01/30 08:04:49;;;;;;;19.67;4.50;;;5.90;59.80;;;;;;4990832;28;20331;-67
2023/01/30 08:07:14;;;;;;;11.33;4.67;;;5.90;27.90;;;;;;4980043;28;20191;-66
2023/01/30 08:09:40;;;;;;;10.67;2.60;;;5.90;1.00;;;;;;4973543;28;20245;-66
2023/01/30 08:12:06;;;;;;;19.40;6.37;;;5.90;1.00;;;;;;4972136;28;20190;-67
2023/01/30 08:14:32;;;;;;;8.30;3.00;;;5.90;1.00;;;;;;4972774;28;20201;-74
2023/01/30 08:16:57;;;;;;;9.00;3.77;;;5.80;1.00;;;;;;4973330;28;20192;-73
2023/01/30 08:19:23;;;;;;;11.10;4.27;;;5.90;1.00;;;;;;4972830;28;20263;-73
2023/01/30 08:21:49;;;;;;;22.33;6.90;;;5.90;1.00;;;;;;4976326;28;20182;-67
2023/01/30 08:24:14;;;;;;;15.23;5.50;;;5.90;1.00;;;;;;4992377;28;20181;-75
2023/01/30 08:26:40;;;;;;;18.70;4.73;;;5.80;1.00;;;;;;4977779;28;20177;-67
2023/01/30 08:29:06;;;;;;;10.10;3.70;;;5.80;1.00;;;;;;4973217;28;20165;-69
2023/01/30 08:31:31;;;;;;;29.00;6.03;;;5.70;1.00;;;;;;4984123;28;20187;-67
2023/01/30 08:33:57;;;;;;;30.50;4.77;;;5.60;1.00;;;;;;4992736;28;20653;-76
2023/01/30 08:36:23;;;;;;;26.27;5.33;;;5.30;1.00;;;;;;4978900;28;20271;-77
2023/01/30 08:38:49;;;;;;;20.10;4.10;;;5.10;1.00;;;;;;4976988;28;20213;-73
2023/01/30 08:41:16;;;;;;;8.30;3.17;;;4.70;1.00;;;;;;4973084;28;20170;-73
2023/01/30 08:43:41;;;;;;;12.57;4.17;;;4.50;1.00;;;;;;4973823;28;20459;-74
2023/01/30 08:46:07;;;;;;;12.57;2.67;;;4.40;3.20;;;;;;4970899;28;20941;-75
2023/01/30 08:48:33;;;;;;;11.43;2.80;;;4.40;25.60;;;;;;4973199;28;20538;-72
2023/01/30 08:50:58;;;;;;;14.97;4.20;;;4.30;35.20;;;;;;4972989;28;20262;-71
2023/01/30 08:53:24;;;;;;;15.87;3.00;;;4.30;51.00;;;;;;4984429;28;20180;-74
2023/01/30 08:55:53;;;;;;;7.07;2.00;;;4.00;33.80;;;;;;4991417;28;20804;-72
2023/01/30 08:58:20;;;;;;;7.40;2.53;;;3.60;18.60;;;;;;4980432;28;20555;-75
2023/01/30 09:00:46;;;;;;;2.67;2.03;;;3.40;27.30;;;;;;4982949;28;20947;-73
2023/01/30 09:03:13;;;;;;;4.20;1.87;;;3.40;48.90;;;;;;4982500;28;20413;-71
2023/01/30 09:05:39;;;;;;;3.93;2.40;;;3.40;76.10;;;;;;4971793;28;20794;-71
2023/01/30 09:08:05;;;;;;;9.50;2.90;;;3.50;93.00;;;;;;4980642;28;20424;-72
2023/01/30 09:10:31;;;;;;;12.67;2.53;;;3.60;99.90;;;;;;4991524;28;20415;-71
2023/01/30 09:12:56;;;;;;;8.67;2.83;;;3.70;99.90;;;;;;4988060;28;20579;-73
2023/01/30 09:15:22;;;;;;;15.20;3.30;;;3.80;99.90;;;;;;4974560;28;20468;-74
2023/01/30 09:17:48;;;;;;;21.33;2.77;;;3.90;99.90;;;;;;4981223;28;20197;-73
2023/01/30 09:20:14;;;;;;;4.77;3.60;;;4.00;99.90;;;;;;4973369;28;20234;-75
2023/01/30 09:22:39;;;;;;;9.13;3.00;;;4.10;99.90;;;;;;4972501;28;20231;-71
2023/01/30 09:25:06;;;;;;;7.70;4.00;;;4.30;99.90;;;;;;4977991;28;20502;-70
2023/01/30 09:27:32;;;;;;;6.77;2.87;;;4.40;99.90;;;;;;4971793;28;20239;-71
2023/01/30 09:29:58;;;;;;;6.70;3.23;;;4.60;99.90;;;;;;4975516;28;20474;-69
2023/01/30 09:32:24;;;;;;;10.60;3.13;;;4.60;99.90;;;;;;4972040;28;20441;-70
2023/01/30 09:34:50;;;;;;;11.67;3.47;;;4.70;99.90;;;;;;4973531;28;20201;-70
2023/01/30 09:37:15;;;;;;;6.73;3.53;;;4.70;99.90;;;;;;4973409;28;20562;-71
2023/01/30 09:39:41;;;;;;;14.93;5.03;;;4.80;99.90;;;;;;4991710;28;20630;-73
2023/01/30 09:42:34;;;;;;;9.33;3.03;;;4.90;99.90;;;;;;4980179;28;20642;-73
2023/01/30 09:45:20;;;;;;;8.97;2.80;;;5.00;99.90;;;;;;4973673;28;20202;-72
2023/01/30 09:48:05;;;;;;;9.80;4.37;;;5.10;99.90;;;;;;4976424;28;20431;-72
2023/01/30 09:50:41;;;;;;;5.40;2.83;;;5.10;99.90;;;;;;4991811;28;20413;-73
2023/01/30 09:53:33;;;;;;;13.03;3.80;;;5.20;99.90;;;;;;4983663;28;20424;-70
2023/01/30 09:56:00;;;;;;;9.43;4.47;;;5.30;99.90;;;;;;4986139;28;20452;-73
2023/01/30 09:58:44;;;;;;;9.30;3.60;;;5.20;99.90;;;;;;4980314;28;20461;-70
2023/01/30 10:01:21;;;;;;;8.70;3.03;;;5.40;99.90;;;;;;4972970;28;20435;-71
2023/01/30 10:04:11;;;;;;;11.50;3.27;;;5.60;99.90;;;;;;4983307;28;20460;-73
2023/01/30 10:07:09;;;;;;;9.90;2.70;;;5.60;99.90;;;;;;4973725;28;20456;-71
2023/01/30 10:09:52;;;;;;;9.63;3.33;;;5.50;99.90;;;;;;4981173;28;20426;-69
2023/01/30 10:12:39;;;;;;;7.80;3.97;;;5.50;99.90;;;;;;4991225;28;20758;-73
2023/01/30 10:15:35;;;;;;;7.83;2.30;;;5.50;99.90;;;;;;4975107;28;20528;-69
2023/01/30 10:18:16;;;;;;;3.57;2.40;;;5.50;99.90;;;;;;4979894;28;20468;-74
2023/01/30 10:21:09;;;;;;;5.23;2.63;;;5.40;99.60;;;;;;4983978;28;20418;-73
2023/01/30 10:23:34;;;;;;;11.97;3.47;;;5.30;99.90;;;;;;4990438;28;20491;-69
2023/01/30 10:26:18;;;;;;;5.40;2.80;;;5.30;99.90;;;;;;4974138;28;20550;-72
2023/01/30 10:28:51;;;;;;;2.27;2.07;;;5.30;99.90;;;;;;4971440;28;20182;-69
2023/01/30 10:31:21;;;;;;;11.87;2.73;;;5.30;99.90;;;;;;4971322;28;20871;-71
2023/01/30 10:34:13;;;;;;;10.57;3.13;;;5.10;99.90;;;;;;4971544;28;20447;-74
2023/01/30 10:37:01;;;;;;;9.43;3.03;;;5.10;99.90;;;;;;4970807;28;20468;-73
2023/01/30 10:39:38;;;;;;;6.33;3.40;;;5.20;99.90;;;;;;4970866;28;20941;-68
2023/01/30 10:42:11;;;;;;;7.50;2.53;;;5.10;99.90;;;;;;4973576;28;20471;-72
2023/01/30 10:44:39;;;;;;;6.50;2.83;;;5.00;99.90;;;;;;4988681;28;20439;-69
2023/01/30 10:47:48;;;;;;;10.70;2.63;;;5.20;99.90;;;;;;4977678;28;20430;-69
2023/01/30 10:50:25;;;;;;;11.80;3.40;;;5.20;99.90;;;;;;4984966;28;20432;-72
2023/01/30 10:53:12;;;;;;;15.40;3.73;;;5.20;99.90;;;;;;4990786;28;20476;-69
2023/01/30 10:55:49;;;;;;;21.40;3.70;;;5.20;99.90;;;;;;4977940;28;20487;-68
2023/01/30 10:58:22;;;;;;;8.87;2.90;;;5.30;99.90;;;;;;4970950;28;20445;-73
2023/01/30 11:01:02;;;;;;;5.67;2.80;;;5.30;99.90;;;;;;4983428;28;20936;-68
2023/01/30 11:03:38;;;;;;;13.63;2.50;;;5.30;99.90;;;;;;4990776;28;20486;-73
2023/01/30 11:06:16;;;;;;;7.67;2.57;;;5.40;99.90;;;;;;4982194;28;20510;-72
2023/01/30 11:08:42;;;;;;;6.43;2.87;;;5.40;99.90;;;;;;4971761;28;20506;-71
2023/01/30 11:11:32;;;;;;;5.27;1.87;;;5.40;99.90;;;;;;4983813;28;20926;-69
2023/01/30 11:14:05;;;;;;;11.40;2.47;;;5.40;99.90;;;;;;4993067;28;20466;-70
2023/01/30 11:16:39;;;;;;;7.67;3.03;;;5.40;99.90;;;;;;4980561;28;20441;-74
2023/01/30 11:19:05;;;;;;;6.53;2.20;;;5.50;99.90;;;;;;4993656;28;20459;-73
2023/01/30 11:21:31;;;;;;;12.03;3.20;;;5.50;99.90;;;;;;4992076;28;20428;-73
2023/01/30 11:24:04;;;;;;;7.20;2.07;;;5.50;99.90;;;;;;4993712;28;20478;-70
2023/01/30 11:26:34;;;;;;;7.40;3.00;;;5.50;99.90;;;;;;4991246;28;20418;-72
2023/01/30 11:29:25;;;;;;;8.93;2.10;;;5.60;99.90;;;;;;4993904;28;20445;-70
2023/01/30 11:31:52;;;;;;;4.93;2.60;;;5.60;99.90;;;;;;4984897;28;20916;-72
2023/01/30 11:34:20;;;;;;;8.17;2.67;;;5.60;99.90;;;;;;4991988;28;20431;-77
2023/01/30 11:36:46;;;;;;;6.07;2.20;;;5.60;99.90;;;;;;4972863;28;20988;-74
2023/01/30 11:39:12;;;;;;;5.07;2.30;;;5.70;98.00;;;;;;4973877;28;20965;-70
2023/01/30 11:41:53;;;;;;;3.77;2.30;;;5.80;99.90;;;;;;4992409;28;20435;-71
2023/01/30 11:44:29;;;;;;;3.30;1.97;;;6.00;97.30;;;;;;4988630;28;20182;-79
2023/01/30 11:46:59;;;;;;;3.40;1.70;;;6.10;93.00;;;;;;4989263;28;20470;-74
2023/01/30 11:49:31;;;;;;;6.57;2.70;;;6.20;78.30;;;;;;4977186;28;20466;-74
2023/01/30 11:51:59;;;;;;;10.63;3.00;;;6.60;83.70;;;;;;4993074;28;20818;-69
2023/01/30 11:54:42;;;;;;;7.97;2.47;;;6.80;29.90;;;;;;4989371;28;20444;-72
2023/01/30 11:57:14;;;;;;;8.33;2.87;;;6.70;1.00;;;;;;4973779;28;20463;-74
2023/01/30 11:59:42;;;;;;;13.10;2.73;;;6.40;1.00;;;;;;4981525;28;20489;-78
2023/01/30 12:02:15;;;;;;;4.27;2.50;;;6.10;1.00;;;;;;4992271;28;20424;-69
2023/01/30 12:04:45;;;;;;;11.03;3.50;;;5.90;1.00;;;;;;4991485;28;20958;-74
2023/01/30 12:07:37;;;;;;;7.93;2.70;;;5.80;1.70;;;;;;4978024;28;20517;-70
2023/01/30 12:10:39;;;;;;;7.47;2.70;;;5.70;11.80;;;;;;4990851;28;20519;-69
2023/01/30 12:13:21;;;;;;;11.23;2.83;;;5.90;62.50;;;;;;4998498;28;20813;-71
2023/01/30 12:16:02;;;;;;;6.53;2.87;;;6.00;54.50;;;;;;4974510;28;20959;-74
2023/01/30 12:18:41;;;;;;;9.80;2.20;;;6.00;36.10;;;;;;4974526;28;20454;-72
2023/01/30 12:21:25;;;;;;;3.37;2.33;;;6.10;29.70;;;;;;4990720;28;20477;-73
2023/01/30 12:24:05;;;;;;;5.63;2.47;;;6.20;38.10;;;;;;4988610;28;20420;-74
2023/01/30 12:26:42;;;;;;;2.23;2.03;;;6.30;30.00;;;;;;4971590;28;20419;-70
2023/01/30 12:29:11;;;;;;;6.20;2.67;;;6.20;1.00;;;;;;4978309;28;20556;-75
2023/01/30 12:31:53;;;;;;;16.50;2.90;;;6.20;1.00;;;;;;4979601;28;20439;-74
2023/01/30 12:34:19;;;;;;;15.57;2.70;;;6.20;1.00;;;;;;4991315;28;20452;-80
2023/01/30 12:37:12;;;;;;;8.97;2.20;;;6.00;1.00;;;;;;4989165;28;20452;-74
2023/01/30 12:39:53;;;;;;;8.07;2.93;;;6.00;1.00;;;;;;4980737;28;20482;-73
2023/01/30 12:42:53;;;;;;;6.77;2.53;;;6.10;1.00;;;;;;4972720;28;20400;-70
2023/01/30 12:45:23;;;;;;;12.50;3.10;;;6.10;1.00;;;;;;4974970;28;20455;-72
2023/01/30 12:47:54;;;;;;;13.23;3.70;;;6.10;1.00;;;;;;4988426;28;20431;-71
2023/01/30 12:50:58;;;;;;;8.07;3.10;;;6.20;1.00;;;;;;4992693;28;20388;-73
2023/01/30 12:53:45;;;;;;;7.23;3.93;;;6.10;1.00;;;;;;4986627;28;20425;-69
2023/01/30 12:56:49;;;;;;;7.40;2.50;;;6.20;1.00;;;;;;4972229;28;20516;-72
2023/01/30 12:59:25;;;;;;;17.93;4.70;;;6.30;1.00;;;;;;4982044;28;20502;-70
2023/01/30 13:02:09;;;;;;;11.53;2.97;;;6.30;1.00;;;;;;4991874;28;20477;-70
2023/01/30 13:04:46;;;;;;;15.57;4.00;;;6.40;1.00;;;;;;4975379;28;20458;-70
2023/01/30 13:07:27;;;;;;;14.80;3.80;;;6.40;1.00;;;;;;4988526;28;20826;-71
2023/01/30 13:10:09;;;;;;;7.23;2.77;;;6.40;1.00;;;;;;4988933;28;20426;-71
2023/01/30 13:12:52;;;;;;;10.40;3.57;;;6.40;1.00;;;;;;4991963;28;20486;-69
2023/01/30 13:15:36;;;;;;;9.80;3.10;;;6.30;1.00;;;;;;4989724;28;20444;-67
2023/01/30 13:18:17;;;;;;;8.80;2.97;;;6.40;1.00;;;;;;4991998;28;20440;-72
2023/01/30 13:20:50;;;;;;;11.30;3.47;;;6.40;1.00;;;;;;4971920;28;20422;-71